createdAt,value
2018-05-11T00:01:46.284Z,9.40
2018-05-11T00:04:13.780Z,9.40
2018-05-11T00:06:41.223Z,9.30
2018-05-11T00:09:08.675Z,9.30
2018-05-11T00:11:36.108Z,9.40
2018-05-11T00:14:03.561Z,9.40
2018-05-11T00:16:31.774Z,9.30
2018-05-11T00:18:59.207Z,9.30
2018-05-11T00:21:26.624Z,9.30
2018-05-11T00:23:54.817Z,9.20
2018-05-11T00:26:23.022Z,9.20
2018-05-11T00:28:50.497Z,9.20
2018-05-11T00:31:17.967Z,9.20
2018-05-11T00:33:45.392Z,9.20
2018-05-11T00:36:12.825Z,9.10
2018-05-11T00:38:41.031Z,9.00
2018-05-11T00:41:08.481Z,9.10
2018-05-11T00:43:35.955Z,9.00
2018-05-11T00:46:03.405Z,9.00
2018-05-11T00:48:30.876Z,9.00
2018-05-11T00:50:58.316Z,8.90
2018-05-11T00:53:25.783Z,8.80
2018-05-11T00:55:53.219Z,8.80
2018-05-11T00:58:20.645Z,8.80
2018-05-11T01:00:48.838Z,8.70
2018-05-11T01:03:16.331Z,8.70
2018-05-11T01:05:43.754Z,8.70
2018-05-11T01:08:11.178Z,8.60
2018-05-11T01:10:38.719Z,8.60
2018-05-11T01:13:06.160Z,8.60
2018-05-11T01:15:33.711Z,8.50
2018-05-11T01:18:01.167Z,8.50
2018-05-11T01:20:28.598Z,8.40
2018-05-11T01:22:56.082Z,8.40
2018-05-11T01:25:23.511Z,8.30
2018-05-11T01:27:50.950Z,8.30
2018-05-11T01:30:19.158Z,8.20
2018-05-11T01:32:46.588Z,8.20
2018-05-11T01:35:14.784Z,8.20
2018-05-11T01:37:42.263Z,8.20
2018-05-11T01:40:09.719Z,8.20
2018-05-11T01:42:37.146Z,8.20
2018-05-11T01:45:04.641Z,8.20
2018-05-11T01:47:32.068Z,8.20
2018-05-11T01:49:59.491Z,8.20
2018-05-11T01:52:26.938Z,8.30
2018-05-11T01:54:54.371Z,8.30
2018-05-11T01:57:21.794Z,8.20
2018-05-11T01:59:49.280Z,8.20
2018-05-11T02:02:16.734Z,8.20
2018-05-11T02:04:44.194Z,8.10
2018-05-11T02:07:11.623Z,8.10
2018-05-11T02:09:39.105Z,8.10
2018-05-11T02:12:06.559Z,8.10
2018-05-11T02:14:33.988Z,8.10
2018-05-11T02:17:02.298Z,8.00
2018-05-11T02:19:29.771Z,8.00
2018-05-11T02:21:57.205Z,8.00
2018-05-11T02:24:24.809Z,8.00
2018-05-11T02:26:52.999Z,8.00
2018-05-11T02:29:21.205Z,8.00
2018-05-11T02:31:48.631Z,8.00
2018-05-11T02:34:16.852Z,7.90
2018-05-11T02:36:44.308Z,7.90
2018-05-11T02:39:11.733Z,7.80
2018-05-11T02:41:39.933Z,7.70
2018-05-11T02:44:07.375Z,7.70
2018-05-11T02:46:34.803Z,7.70
2018-05-11T02:49:03.002Z,7.60
2018-05-11T02:51:30.427Z,7.60
2018-05-11T02:53:57.939Z,7.60
2018-05-11T02:56:25.371Z,7.50
2018-05-11T02:58:52.803Z,7.50
2018-05-11T03:01:21.048Z,7.50
2018-05-11T03:03:48.471Z,7.50
2018-05-11T03:06:15.907Z,7.40
2018-05-11T03:08:44.106Z,7.40
2018-05-11T03:11:11.540Z,7.40
2018-05-11T03:13:39.743Z,7.40
2018-05-11T03:16:07.177Z,7.40
2018-05-11T03:18:35.526Z,7.30
2018-05-11T03:21:02.907Z,7.30
2018-05-11T03:23:30.337Z,7.30
2018-05-11T03:25:58.578Z,7.20
2018-05-11T03:28:26.001Z,7.20
2018-05-11T03:30:53.444Z,7.20
2018-05-11T03:33:21.670Z,7.20
2018-05-11T03:35:49.130Z,7.20
2018-05-11T03:38:16.551Z,7.20
2018-05-11T03:40:44.035Z,7.20
2018-05-11T03:43:11.467Z,7.20
2018-05-11T03:45:38.898Z,7.10
2018-05-11T03:48:06.406Z,7.10
2018-05-11T03:50:33.871Z,7.10
2018-05-11T03:53:01.299Z,7.10
2018-05-11T03:55:28.732Z,7.10
2018-05-11T03:57:56.158Z,7.00
2018-05-11T04:00:23.691Z,7.00
2018-05-11T04:03:03.135Z,7.00
2018-05-11T04:05:42.478Z,7.00
2018-05-11T04:08:33.750Z,7.00
2018-05-11T04:11:01.940Z,7.00
2018-05-11T04:13:29.380Z,7.00
2018-05-11T04:15:57.566Z,7.00
2018-05-11T04:18:25.000Z,7.00
2018-05-11T04:20:53.188Z,6.90
2018-05-11T04:23:21.489Z,6.90
2018-05-11T04:25:48.951Z,6.90
2018-05-11T04:28:16.383Z,6.90
2018-05-11T04:30:43.811Z,6.90
2018-05-11T04:33:11.306Z,6.90
2018-05-11T04:35:38.745Z,6.90
2018-05-11T04:38:06.952Z,6.90
2018-05-11T04:40:34.391Z,6.90
2018-05-11T04:43:01.825Z,7.00
2018-05-11T04:45:30.044Z,7.00
2018-05-11T04:47:57.476Z,7.00
2018-05-11T04:50:24.986Z,7.00
2018-05-11T04:52:52.451Z,7.10
2018-05-11T04:55:19.896Z,7.10
2018-05-11T04:57:47.348Z,7.10
2018-05-11T05:00:14.770Z,7.10
2018-05-11T05:02:42.215Z,7.10
2018-05-11T05:05:10.411Z,7.10
2018-05-11T05:07:37.849Z,7.10
2018-05-11T05:10:06.051Z,7.20
2018-05-11T05:12:33.489Z,7.20
2018-05-11T05:15:00.933Z,7.30
2018-05-11T05:17:29.137Z,7.40
2018-05-11T05:19:56.564Z,7.40
2018-05-11T05:22:24.783Z,7.60
2018-05-11T05:24:52.217Z,7.60
2018-05-11T05:27:19.663Z,7.70
2018-05-11T05:29:47.155Z,7.80
2018-05-11T05:32:14.589Z,7.90
2018-05-11T05:34:42.039Z,7.90
2018-05-11T05:37:09.541Z,8.00
2018-05-11T05:39:36.983Z,8.10
2018-05-11T05:42:04.411Z,8.20
2018-05-11T05:44:31.853Z,8.20
2018-05-11T05:46:59.313Z,8.40
2018-05-11T05:49:26.772Z,8.40
2018-05-11T05:51:54.295Z,8.50
2018-05-11T05:54:21.663Z,8.70
2018-05-11T05:56:49.144Z,8.80
2018-05-11T05:59:16.589Z,8.90
2018-05-11T06:01:44.028Z,9.10
2018-05-11T06:04:11.451Z,9.20
2018-05-11T06:06:39.656Z,9.50
2018-05-11T06:09:07.078Z,9.50
2018-05-11T06:11:35.328Z,9.80
2018-05-11T06:14:02.756Z,9.70
2018-05-11T06:16:30.230Z,9.90
2018-05-11T06:18:57.674Z,10.00
2018-05-11T06:21:25.119Z,10.20
2018-05-11T06:23:52.539Z,10.30
2018-05-11T06:26:20.759Z,10.60
2018-05-11T06:28:48.225Z,10.60
2018-05-11T06:31:15.676Z,10.70
2018-05-11T06:33:43.091Z,10.90
2018-05-11T06:36:11.311Z,11.10
2018-05-11T06:38:38.742Z,11.10
2018-05-11T06:41:06.188Z,11.30
2018-05-11T06:43:34.400Z,11.50
2018-05-11T06:46:01.908Z,11.50
2018-05-11T06:48:29.286Z,11.70
2018-05-11T06:50:56.714Z,11.80
2018-05-11T06:53:24.334Z,12.00
2018-05-11T06:55:51.761Z,12.10
2018-05-11T06:58:19.953Z,12.30
2018-05-11T07:00:47.386Z,12.20
2018-05-11T07:03:14.890Z,12.30
2018-05-11T07:05:42.329Z,12.50
2018-05-11T07:08:09.754Z,12.70
2018-05-11T07:10:38.061Z,13.00
2018-05-11T07:13:05.484Z,13.00
2018-05-11T07:15:33.719Z,13.20
2018-05-11T07:18:01.155Z,13.20
2018-05-11T07:20:28.586Z,13.30
2018-05-11T07:22:56.017Z,13.40
2018-05-11T07:25:24.246Z,13.70
2018-05-11T07:27:51.690Z,13.60
2018-05-11T07:30:19.119Z,13.70
2018-05-11T07:32:47.325Z,13.60
2018-05-11T07:35:14.783Z,13.60
2018-05-11T07:37:42.193Z,13.70
2018-05-11T07:40:09.643Z,13.80
2018-05-11T07:42:37.083Z,13.90
2018-05-11T07:45:04.525Z,13.80
2018-05-11T07:47:31.988Z,13.80
2018-05-11T07:49:59.438Z,13.90
2018-05-11T07:52:26.962Z,14.10
2018-05-11T07:54:55.173Z,14.40
2018-05-11T07:57:22.603Z,14.40
2018-05-11T07:59:50.039Z,14.50
2018-05-11T08:02:18.293Z,14.70
2018-05-11T08:04:45.730Z,14.70
2018-05-11T08:07:13.280Z,14.80
2018-05-11T08:09:40.738Z,15.00
2018-05-11T08:12:08.177Z,15.00
2018-05-11T08:14:35.718Z,15.10
2018-05-11T08:17:03.214Z,15.20
2018-05-11T08:19:30.652Z,15.30
2018-05-11T08:21:58.111Z,15.40
2018-05-11T08:24:25.535Z,15.40
2018-05-11T08:26:53.010Z,15.20
2018-05-11T08:29:21.278Z,15.30
2018-05-11T08:31:48.711Z,15.30
2018-05-11T08:34:16.152Z,15.50
2018-05-11T08:36:43.581Z,15.70
2018-05-11T08:39:11.795Z,16.00
2018-05-11T08:41:39.243Z,16.00
2018-05-11T08:44:06.686Z,16.20
2018-05-11T08:46:34.127Z,16.30
2018-05-11T08:49:02.332Z,16.20
2018-05-11T08:51:29.777Z,16.20
2018-05-11T08:53:57.228Z,15.90
2018-05-11T08:56:24.659Z,16.00
2018-05-11T08:58:52.915Z,16.20
2018-05-11T09:01:20.296Z,16.20
2018-05-11T09:03:48.510Z,16.50
2018-05-11T09:06:15.962Z,16.50
2018-05-11T09:08:43.490Z,16.40
2018-05-11T09:11:10.828Z,16.40
2018-05-11T09:13:38.351Z,16.50
2018-05-11T09:16:05.807Z,16.60
2018-05-11T09:18:33.251Z,16.80
2018-05-11T09:21:00.723Z,16.90
2018-05-11T09:23:28.171Z,16.80
2018-05-11T09:25:55.631Z,16.80
2018-05-11T09:28:23.086Z,16.90
2018-05-11T09:30:50.513Z,16.90
2018-05-11T09:33:18.827Z,17.20
2018-05-11T09:35:46.301Z,17.20
2018-05-11T09:38:13.736Z,17.30
2018-05-11T09:40:41.190Z,17.40
2018-05-11T09:43:08.641Z,17.50
2018-05-11T09:45:36.080Z,17.50
2018-05-11T09:48:03.520Z,17.40
2018-05-11T09:50:30.950Z,17.30
2018-05-11T09:52:58.469Z,17.40
2018-05-11T09:55:25.918Z,17.40
2018-05-11T09:57:53.387Z,17.40
2018-05-11T10:00:25.737Z,17.50
2018-05-11T10:02:53.177Z,17.50
2018-05-11T10:05:20.639Z,17.60
2018-05-11T10:07:48.111Z,17.70
2018-05-11T10:10:15.547Z,17.80
2018-05-11T10:12:42.985Z,17.70
2018-05-11T10:15:10.408Z,17.70
2018-05-11T10:17:38.616Z,17.80
2018-05-11T10:20:06.049Z,17.80
2018-05-11T10:22:34.248Z,18.00
2018-05-11T10:25:01.723Z,18.00
2018-05-11T10:27:29.160Z,18.00
2018-05-11T10:29:56.589Z,18.10
2018-05-11T10:32:24.935Z,18.20
2018-05-11T10:34:52.356Z,18.20
2018-05-11T10:37:19.815Z,18.30
2018-05-11T10:39:47.267Z,18.20
2018-05-11T10:42:14.776Z,18.30
2018-05-11T10:44:42.280Z,18.40
2018-05-11T10:47:09.736Z,18.60
2018-05-11T10:49:37.158Z,18.70
2018-05-11T10:52:04.592Z,18.90
2018-05-11T10:54:32.108Z,19.10
2018-05-11T10:56:59.589Z,19.10
2018-05-11T10:59:27.061Z,19.20
2018-05-11T11:01:54.539Z,19.20
2018-05-11T11:04:21.999Z,19.10
2018-05-11T11:06:49.471Z,19.10
2018-05-11T11:09:16.935Z,19.20
2018-05-11T11:11:44.369Z,19.20
2018-05-11T11:14:11.807Z,19.30
2018-05-11T11:16:39.239Z,19.50
2018-05-11T11:19:06.671Z,19.70
2018-05-11T11:21:34.115Z,19.80
2018-05-11T11:24:02.315Z,20.10
2018-05-11T11:26:29.763Z,20.10
2018-05-11T11:28:57.254Z,20.20
2018-05-11T11:31:24.676Z,20.20
2018-05-11T11:33:52.115Z,20.40
2018-05-11T11:36:19.547Z,20.50
2018-05-11T11:38:47.079Z,20.40
2018-05-11T11:41:14.531Z,20.30
2018-05-11T11:43:41.960Z,20.10
2018-05-11T11:46:09.452Z,19.70
2018-05-11T11:48:36.887Z,19.60
2018-05-11T11:51:04.338Z,19.50
2018-05-11T11:53:32.531Z,19.80
2018-05-11T11:55:59.979Z,19.80
2018-05-11T11:58:28.202Z,20.00
2018-05-11T12:00:55.743Z,20.00
2018-05-11T12:03:23.218Z,20.20
2018-05-11T12:05:50.671Z,20.20
2018-05-11T12:08:18.099Z,20.20
2018-05-11T12:10:45.543Z,20.20
2018-05-11T12:13:12.999Z,20.20
2018-05-11T12:15:41.199Z,20.00
2018-05-11T12:18:08.656Z,20.00
2018-05-11T12:20:36.090Z,20.00
2018-05-11T12:23:04.400Z,20.40
2018-05-11T12:25:31.848Z,20.40
2018-05-11T12:27:59.278Z,20.30
2018-05-11T12:30:27.485Z,20.30
2018-05-11T12:32:54.902Z,20.30
2018-05-11T12:35:23.133Z,20.30
2018-05-11T12:37:50.579Z,20.30
2018-05-11T12:40:18.127Z,20.40
2018-05-11T12:42:45.555Z,20.60
2018-05-11T12:45:13.777Z,20.40
2018-05-11T12:47:41.227Z,20.40
2018-05-11T12:50:08.666Z,20.30
2018-05-11T12:52:36.121Z,20.50
2018-05-11T12:55:03.567Z,20.80
2018-05-11T12:57:31.007Z,21.00
2018-05-11T12:59:59.217Z,21.20
2018-05-11T13:02:26.655Z,21.10
2018-05-11T13:04:54.104Z,21.00
2018-05-11T13:07:22.319Z,20.80
2018-05-11T13:09:49.804Z,20.80
2018-05-11T13:12:17.247Z,20.60
2018-05-11T13:14:44.679Z,20.80
2018-05-11T13:17:12.147Z,20.80
2018-05-11T13:19:39.575Z,20.70
2018-05-11T13:22:07.028Z,20.70
2018-05-11T13:24:35.224Z,21.00
2018-05-11T13:27:02.655Z,21.00
2018-05-11T13:29:30.120Z,21.40
2018-05-11T13:31:57.561Z,21.70
2018-05-11T13:34:25.778Z,22.10
2018-05-11T13:36:53.231Z,22.10
2018-05-11T13:39:20.723Z,22.40
2018-05-11T13:41:48.253Z,22.40
2018-05-11T13:44:15.731Z,22.40
2018-05-11T13:46:43.159Z,22.30
2018-05-11T13:49:10.613Z,22.40
2018-05-11T13:51:38.083Z,22.80
2018-05-11T13:54:05.563Z,23.30
2018-05-11T13:56:33.005Z,23.50
2018-05-11T13:59:00.426Z,23.80
2018-05-11T14:01:28.647Z,24.10
2018-05-11T14:03:56.083Z,24.10
2018-05-11T14:06:23.507Z,24.50
2018-05-11T14:08:50.940Z,24.80
2018-05-11T14:11:18.415Z,24.80
2018-05-11T14:13:45.870Z,24.60
2018-05-11T14:16:13.321Z,24.70
2018-05-11T14:18:40.759Z,24.50
2018-05-11T14:21:08.187Z,24.30
2018-05-11T14:23:37.136Z,24.00
2018-05-11T14:26:04.588Z,24.00
2018-05-11T14:28:32.022Z,24.10
2018-05-11T14:31:00.223Z,24.30
2018-05-11T14:33:27.666Z,24.20
2018-05-11T14:35:55.878Z,23.60
2018-05-11T14:38:23.328Z,23.60
2018-05-11T14:40:50.791Z,23.80
2018-05-11T14:43:18.236Z,24.00
2018-05-11T14:45:45.700Z,24.30
2018-05-11T14:48:13.145Z,24.40
2018-05-11T14:50:40.633Z,24.50
2018-05-11T14:53:08.173Z,24.60
2018-05-11T14:55:35.519Z,24.80
2018-05-11T14:58:02.955Z,24.80
2018-05-11T15:00:30.438Z,24.80
2018-05-11T15:02:57.863Z,24.80
2018-05-11T15:05:26.079Z,25.20
2018-05-11T15:07:54.479Z,25.10
2018-05-11T15:10:22.016Z,25.60
2018-05-11T15:12:49.487Z,25.70
2018-05-11T15:15:16.936Z,25.40
2018-05-11T15:17:44.394Z,25.00
2018-05-11T15:20:11.836Z,24.60
2018-05-11T15:22:39.303Z,24.30
2018-05-11T15:25:06.763Z,23.90
2018-05-11T15:27:34.223Z,23.60
2018-05-11T15:30:01.679Z,23.70
2018-05-11T15:32:29.130Z,24.00
2018-05-11T15:34:56.573Z,24.40
2018-05-11T15:37:24.077Z,24.50
2018-05-11T15:39:51.611Z,24.80
2018-05-11T15:42:19.059Z,24.80
2018-05-11T15:44:46.512Z,24.70
2018-05-11T15:47:13.952Z,24.50
2018-05-11T15:49:41.394Z,24.60
2018-05-11T15:52:09.600Z,24.90
2018-05-11T15:54:37.059Z,24.90
2018-05-11T15:57:04.503Z,25.10
2018-05-11T15:59:31.952Z,25.10
2018-05-11T16:01:59.401Z,25.20
2018-05-11T16:04:27.666Z,25.40
2018-05-11T16:06:55.147Z,25.30
2018-05-11T16:09:22.590Z,25.40
2018-05-11T16:11:50.805Z,24.50
2018-05-11T16:14:18.240Z,24.50
2018-05-11T16:16:45.672Z,24.30
2018-05-11T16:19:13.881Z,23.90
2018-05-11T16:21:41.990Z,23.90
2018-05-11T16:24:10.819Z,23.60
2018-05-11T16:26:39.035Z,23.70
2018-05-11T16:29:06.491Z,23.70
2018-05-11T16:31:33.933Z,24.00
2018-05-11T16:34:01.407Z,24.20
2018-05-11T16:36:28.860Z,24.50
2018-05-11T16:38:56.319Z,24.40
2018-05-11T16:41:23.761Z,23.90
2018-05-11T16:43:51.212Z,23.50
2018-05-11T16:46:18.645Z,23.10
2018-05-11T16:48:46.871Z,22.70
2018-05-11T16:51:14.375Z,22.60
2018-05-11T16:53:41.871Z,22.60
2018-05-11T16:56:09.301Z,22.50
2018-05-11T16:58:37.506Z,22.30
2018-05-11T17:01:04.959Z,22.30
2018-05-11T17:03:32.430Z,22.40
2018-05-11T17:05:59.898Z,22.30
2018-05-11T17:08:27.339Z,22.20
2018-05-11T17:10:54.795Z,22.00
2018-05-11T17:13:22.251Z,21.80
2018-05-11T17:15:49.715Z,21.70
2018-05-11T17:18:17.159Z,21.60
2018-05-11T17:20:44.629Z,21.40
2018-05-11T17:23:12.081Z,21.30
2018-05-11T17:25:39.563Z,21.20
2018-05-11T17:28:07.020Z,21.10
2018-05-11T17:30:34.455Z,21.10
2018-05-11T17:33:01.906Z,21.00
2018-05-11T17:35:29.381Z,21.00
2018-05-11T17:37:56.847Z,20.90
2018-05-11T17:40:24.283Z,20.80
2018-05-11T17:42:51.737Z,20.70
2018-05-11T17:45:19.214Z,20.60
2018-05-11T17:47:46.659Z,20.60
2018-05-11T17:50:14.125Z,20.60
2018-05-11T17:52:41.594Z,20.50
2018-05-11T17:55:09.053Z,20.50
2018-05-11T17:57:36.523Z,20.30
2018-05-11T18:00:03.999Z,20.20
2018-05-11T18:02:32.247Z,20.20
2018-05-11T18:04:59.683Z,20.10
2018-05-11T18:07:27.135Z,20.10
2018-05-11T18:09:54.595Z,20.10
2018-05-11T18:12:22.114Z,20.00
2018-05-11T18:14:49.624Z,19.90
2018-05-11T18:17:17.183Z,19.90
2018-05-11T18:19:44.629Z,20.00
2018-05-11T18:22:12.091Z,20.00
2018-05-11T18:24:39.532Z,20.00
2018-05-11T18:27:07.007Z,20.00
2018-05-11T18:29:34.471Z,20.00
2018-05-11T18:32:02.109Z,19.90
2018-05-11T18:34:29.591Z,20.00
2018-05-11T18:36:57.079Z,20.00
2018-05-11T18:39:24.555Z,19.90
2018-05-11T18:41:52.865Z,19.80
2018-05-11T18:44:20.318Z,19.70
2018-05-11T18:46:47.779Z,19.80
2018-05-11T18:49:15.207Z,19.80
2018-05-11T18:51:42.651Z,19.80
2018-05-11T18:54:11.134Z,19.70
2018-05-11T18:56:38.373Z,19.70
2018-05-11T18:59:06.611Z,19.70
2018-05-11T19:01:34.121Z,19.60
2018-05-11T19:04:01.560Z,19.60
2018-05-11T19:06:29.003Z,19.50
2018-05-11T19:08:56.541Z,19.50
2018-05-11T19:11:24.014Z,19.40
2018-05-11T19:13:52.290Z,19.30
2018-05-11T19:16:19.783Z,19.30
2018-05-11T19:18:48.016Z,19.10
2018-05-11T19:21:16.230Z,18.90
2018-05-11T19:23:43.672Z,18.90
2018-05-11T19:26:11.882Z,18.80
2018-05-11T19:28:39.384Z,18.80
2018-05-11T19:31:06.876Z,18.70
2018-05-11T19:33:34.303Z,18.60
2018-05-11T19:36:01.848Z,18.50
2018-05-11T19:38:29.285Z,18.40
2018-05-11T19:40:56.751Z,18.40
2018-05-11T19:43:24.183Z,18.40
2018-05-11T19:45:52.412Z,18.30
2018-05-11T19:48:19.852Z,18.20
2018-05-11T19:50:47.307Z,18.20
2018-05-11T19:53:14.783Z,18.10
2018-05-11T19:55:42.223Z,18.10
2018-05-11T19:58:09.681Z,18.10
2018-05-11T20:00:37.112Z,18.00
2018-05-11T20:03:04.551Z,18.00
2018-05-11T20:05:32.008Z,18.00
2018-05-11T20:07:59.459Z,18.00
2018-05-11T20:10:26.927Z,17.90
2018-05-11T20:12:54.350Z,17.90
2018-05-11T20:15:22.558Z,17.80
2018-05-11T20:17:50.015Z,17.80
2018-05-11T20:20:17.459Z,17.80
2018-05-11T20:22:44.899Z,17.80
2018-05-11T20:25:12.339Z,17.80
2018-05-11T20:27:39.780Z,17.80
2018-05-11T20:30:07.239Z,17.80
2018-05-11T20:32:35.445Z,17.80
2018-05-11T20:35:02.864Z,17.80
2018-05-11T20:37:30.363Z,17.70
2018-05-11T20:39:57.843Z,17.70
2018-05-11T20:42:25.308Z,17.60
2018-05-11T20:44:52.767Z,17.60
2018-05-11T20:47:20.999Z,17.50
2018-05-11T20:49:48.433Z,17.50
2018-05-11T20:52:15.911Z,17.40
2018-05-11T20:54:43.368Z,17.30
2018-05-11T20:57:10.801Z,17.20
2018-05-11T20:59:38.240Z,17.20
2018-05-11T21:02:06.447Z,17.00
2018-05-11T21:04:33.880Z,17.00
2018-05-11T21:07:01.319Z,17.00
2018-05-11T21:09:29.556Z,16.90
2018-05-11T21:11:57.003Z,16.90
2018-05-11T21:14:24.464Z,16.80
2018-05-11T21:16:52.018Z,16.80
2018-05-11T21:19:19.478Z,16.70
2018-05-11T21:21:46.927Z,16.70
2018-05-11T21:24:14.343Z,16.60
2018-05-11T21:26:42.559Z,16.50
2018-05-11T21:29:10.129Z,16.50
2018-05-11T21:31:37.659Z,16.40
2018-05-11T21:34:05.145Z,16.40
2018-05-11T21:36:32.592Z,16.20
2018-05-11T21:39:00.059Z,16.30
2018-05-11T21:41:27.496Z,16.20
2018-05-11T21:43:54.972Z,16.20
2018-05-11T21:46:22.427Z,16.20
2018-05-11T21:48:49.889Z,16.10
2018-05-11T21:51:17.435Z,16.10
2018-05-11T21:53:44.874Z,16.00
2018-05-11T21:56:12.355Z,16.00
2018-05-11T21:58:39.823Z,16.00
2018-05-11T22:01:07.259Z,16.10
2018-05-11T22:03:34.698Z,16.10
2018-05-11T22:06:02.158Z,16.00
2018-05-11T22:08:30.467Z,15.80
2018-05-11T22:10:57.899Z,15.60
2018-05-11T22:13:25.384Z,15.50
2018-05-11T22:15:53.551Z,15.40
2018-05-11T22:18:21.010Z,15.30
2018-05-11T22:20:48.567Z,15.30
2018-05-11T22:23:16.015Z,15.20
2018-05-11T22:25:43.471Z,15.20
2018-05-11T22:28:10.941Z,15.30
2018-05-11T22:30:38.395Z,15.30
2018-05-11T22:33:05.844Z,15.30
2018-05-11T22:35:33.276Z,15.40
2018-05-11T22:38:00.719Z,15.40
2018-05-11T22:40:28.926Z,15.40
2018-05-11T22:42:56.405Z,15.40
2018-05-11T22:45:23.842Z,15.40
2018-05-11T22:47:51.270Z,15.40
2018-05-11T22:50:19.535Z,15.30
2018-05-11T22:52:48.480Z,15.30
2018-05-11T22:55:15.913Z,15.30
2018-05-11T22:57:43.395Z,15.30
2018-05-11T23:00:10.891Z,15.30
2018-05-11T23:02:38.437Z,15.20
2018-05-11T23:05:05.980Z,15.20
2018-05-11T23:07:33.428Z,15.10
2018-05-11T23:10:01.035Z,15.00
2018-05-11T23:12:28.459Z,14.90
2018-05-11T23:14:56.926Z,14.80
2018-05-11T23:17:24.383Z,14.80
2018-05-11T23:19:51.814Z,14.70
2018-05-11T23:22:20.210Z,14.70
2018-05-11T23:24:47.719Z,14.60
2018-05-11T23:27:15.959Z,14.50
2018-05-11T23:29:43.411Z,14.50
2018-05-11T23:32:10.853Z,14.40
2018-05-11T23:34:38.329Z,14.30
2018-05-11T23:37:05.801Z,14.20
2018-05-11T23:39:33.240Z,14.10
2018-05-11T23:42:00.675Z,14.00
2018-05-11T23:44:28.111Z,13.90
2018-05-11T23:46:56.330Z,13.70
2018-05-11T23:49:23.769Z,13.60
2018-05-11T23:51:51.200Z,13.60
2018-05-11T23:54:19.405Z,13.60
2018-05-11T23:56:46.887Z,13.60
2018-05-11T23:59:14.441Z,13.60
